Time;durP1;ratioP1;P1;durP2;ratioP2;P2;SDS_P1;SDS_P2;PMS_P1;PMS_P2;Temp;Humidity;BMP_temperature;BMP_pressure;BME280_temperature;BME280_humidity;BME280_pressure;Samples;Min_cycle;Max_cycle;Signal;HPM_P1;HPM_P2
2023/06/27 00:02:20;;;;;;;;;;;15.90;99.90;;;;;;5107585;28;19927;-75
2023/06/27 00:04:47;;;;;;;;;;;15.80;99.90;;;;;;5109483;28;20370;-74
2023/06/27 00:07:13;;;;;;;;;;;15.80;99.90;;;;;;5113801;28;19920;-74
2023/06/27 00:09:38;;;;;;;;;;;15.80;99.90;;;;;;5109490;28;19924;-75
2023/06/27 00:12:05;;;;;;;;;;;15.80;99.90;;;;;;5099688;28;19935;-75
2023/06/27 00:14:30;;;;;;;;;;;15.80;99.90;;;;;;5108405;27;19947;-73
2023/06/27 00:16:57;;;;;;;;;;;15.70;99.90;;;;;;5101890;28;20378;-73
2023/06/27 00:19:22;;;;;;;;;;;15.70;99.90;;;;;;5095809;27;20330;-75
2023/06/27 00:21:48;;;;;;;;;;;15.70;99.90;;;;;;5109686;28;20015;-75
2023/06/27 00:24:14;;;;;;;;;;;15.70;99.90;;;;;;5107257;27;19927;-75
2023/06/27 00:26:39;;;;;;;;;;;15.70;99.90;;;;;;5100858;28;19923;-74
2023/06/27 00:29:05;;;;;;;;;;;15.70;99.90;;;;;;5104705;28;19973;-74
2023/06/27 00:31:30;;;;;;;;;;;15.60;99.90;;;;;;5089528;28;19919;-74
2023/06/27 00:33:56;;;;;;;;;;;15.60;99.90;;;;;;5104698;28;19904;-74
2023/06/27 00:36:21;;;;;;;;;;;15.60;99.90;;;;;;5107506;27;19920;-74
2023/06/27 00:38:47;;;;;;;;;;;15.60;99.90;;;;;;5088342;28;19927;-75
2023/06/27 00:41:13;;;;;;;;;;;15.60;99.90;;;;;;5098446;28;20405;-73
2023/06/27 00:43:39;;;;;;;;;;;15.60;99.90;;;;;;5109429;28;19997;-74
2023/06/27 00:46:06;;;;;;;;;;;15.60;99.90;;;;;;5093420;28;20235;-75
2023/06/27 00:48:32;;;;;;;;;;;15.60;99.90;;;;;;5102991;28;19920;-74
2023/06/27 00:50:58;;;;;;;;;;;15.60;99.90;;;;;;5106164;28;19927;-75
2023/06/27 00:53:24;;;;;;;;;;;15.60;99.90;;;;;;5108085;28;20301;-74
2023/06/27 00:55:50;;;;;;;;;;;15.60;99.90;;;;;;5120835;28;19934;-74
2023/06/27 00:58:17;;;;;;;;;;;15.50;99.90;;;;;;5111726;28;19923;-73
2023/06/27 01:00:42;;;;;;;;;;;15.50;99.90;;;;;;5109217;28;20385;-74
2023/06/27 01:03:08;;;;;;;;;;;15.50;99.90;;;;;;5111141;28;19934;-74
2023/06/27 01:05:35;;;;;;;;;;;15.40;99.90;;;;;;5118713;28;19919;-75
2023/06/27 01:08:00;;;;;;;;;;;15.40;99.90;;;;;;5119607;28;19928;-75
2023/06/27 01:10:34;;;;;;;;;;;15.50;99.90;;;;;;5116089;28;20011;-75
2023/06/27 01:13:05;;;;;;;;;;;15.40;99.90;;;;;;5131275;28;19923;-74
2023/06/27 01:15:31;;;;;;;;;;;15.40;99.90;;;;;;5107307;28;19919;-74
2023/06/27 01:17:57;;;;;;;;;;;15.40;99.90;;;;;;5112982;28;19925;-74
2023/06/27 01:20:23;;;;;;;;;;;15.40;99.90;;;;;;5104234;28;19919;-74
2023/06/27 01:23:04;;;;;;;;;;;15.40;99.90;;;;;;5115834;28;19964;-74
2023/06/27 01:25:31;;;;;;;;;;;15.40;99.90;;;;;;5097928;28;19923;-75
2023/06/27 01:27:56;;;;;;;;;;;15.30;99.90;;;;;;5107113;28;20070;-75
2023/06/27 01:30:22;;;;;;;;;;;15.30;99.90;;;;;;5106972;28;19974;-75
2023/06/27 01:32:58;;;;;;;;;;;15.30;99.90;;;;;;5103209;28;19990;-74
2023/06/27 01:35:27;;;;;;;;;;;15.30;99.90;;;;;;5111092;28;19908;-75
2023/06/27 01:37:58;;;;;;;;;;;15.30;99.90;;;;;;5099786;28;20913;-74
2023/06/27 01:40:23;;;;;;;;;;;15.20;99.90;;;;;;5115349;28;19920;-76
2023/06/27 01:42:57;;;;;;;;;;;15.20;99.90;;;;;;5103125;28;20276;-74
2023/06/27 01:45:23;;;;;;;;;;;15.20;99.90;;;;;;5098676;28;20166;-75
2023/06/27 01:47:49;;;;;;;;;;;15.20;99.90;;;;;;5115664;27;19923;-74
2023/06/27 01:50:15;;;;;;;;;;;15.20;99.90;;;;;;5107918;28;19920;-74
2023/06/27 01:52:41;;;;;;;;;;;15.20;99.90;;;;;;5110186;27;19965;-75
2023/06/27 01:55:07;;;;;;;;;;;15.20;99.90;;;;;;5102773;28;19920;-74
2023/06/27 01:57:32;;;;;;;;;;;15.20;99.90;;;;;;5115532;27;19926;-76
2023/06/27 01:59:58;;;;;;;;;;;15.20;99.90;;;;;;5113252;28;20022;-75
2023/06/27 02:02:23;;;;;;;;;;;15.10;99.90;;;;;;5114194;28;19928;-74
2023/06/27 02:04:49;;;;;;;;;;;15.20;99.90;;;;;;5094876;28;19920;-75
2023/06/27 02:07:15;;;;;;;;;;;15.20;99.90;;;;;;5107644;28;20297;-74
2023/06/27 02:09:40;;;;;;;;;;;15.20;99.90;;;;;;5092046;28;19995;-74
2023/06/27 02:12:06;;;;;;;;;;;15.20;99.90;;;;;;5093044;28;19920;-74
2023/06/27 02:14:32;;;;;;;;;;;15.20;99.90;;;;;;5101218;28;19924;-75
2023/06/27 02:16:57;;;;;;;;;;;15.10;99.90;;;;;;5080984;28;19932;-75
2023/06/27 02:19:23;;;;;;;;;;;15.10;99.90;;;;;;5115669;27;19920;-76
2023/06/27 02:21:49;;;;;;;;;;;15.10;99.90;;;;;;5109701;28;19920;-74
2023/06/27 02:24:15;;;;;;;;;;;15.20;99.90;;;;;;5088042;28;19946;-75
2023/06/27 02:26:40;;;;;;;;;;;15.20;99.90;;;;;;5107337;27;19923;-75
2023/06/27 02:29:06;;;;;;;;;;;15.20;99.90;;;;;;5105585;28;20011;-74
2023/06/27 02:31:31;;;;;;;;;;;15.20;99.90;;;;;;5114958;28;20006;-74
2023/06/27 02:33:57;;;;;;;;;;;15.20;99.90;;;;;;5109116;27;19919;-74
2023/06/27 02:36:25;;;;;;;;;;;15.20;99.90;;;;;;5112846;28;19920;-75
2023/06/27 02:38:54;;;;;;;;;;;15.30;99.90;;;;;;5114631;28;20014;-75
2023/06/27 02:41:21;;;;;;;;;;;15.30;99.90;;;;;;5087543;28;19966;-75
2023/06/27 02:43:46;;;;;;;;;;;15.30;99.90;;;;;;5109591;28;19927;-74
2023/06/27 02:46:12;;;;;;;;;;;15.20;99.90;;;;;;5105660;28;19919;-73
2023/06/27 02:48:37;;;;;;;;;;;15.20;99.90;;;;;;5117116;27;20048;-73
2023/06/27 02:51:03;;;;;;;;;;;15.20;99.90;;;;;;5109400;27;19904;-74
2023/06/27 02:53:28;;;;;;;;;;;15.20;99.90;;;;;;5105771;28;20342;-74
2023/06/27 02:55:56;;;;;;;;;;;15.30;99.90;;;;;;5094371;28;19972;-73
2023/06/27 02:58:22;;;;;;;;;;;15.30;99.90;;;;;;5080323;27;19920;-74
2023/06/27 03:00:47;;;;;;;;;;;15.30;99.90;;;;;;5097913;28;20010;-74
2023/06/27 03:03:13;;;;;;;;;;;15.20;99.90;;;;;;5102358;28;19927;-75
2023/06/27 03:05:38;;;;;;;;;;;15.20;99.90;;;;;;5116929;27;19923;-74
2023/06/27 03:08:04;;;;;;;;;;;15.20;99.90;;;;;;5082904;27;19998;-74
2023/06/27 03:10:29;;;;;;;;;;;15.30;99.90;;;;;;5101065;27;19923;-76
2023/06/27 03:12:55;;;;;;;;;;;15.20;99.90;;;;;;5082633;28;19927;-73
2023/06/27 03:15:21;;;;;;;;;;;15.30;99.90;;;;;;5109722;28;19972;-75
2023/06/27 03:17:46;;;;;;;;;;;15.20;99.90;;;;;;5097759;28;19927;-74
2023/06/27 03:20:12;;;;;;;;;;;15.20;99.90;;;;;;5098152;28;20030;-75
2023/06/27 03:22:37;;;;;;;;;;;15.20;99.90;;;;;;5093907;28;19920;-72
2023/06/27 03:25:03;;;;;;;;;;;15.20;99.90;;;;;;5107700;28;19923;-74
2023/06/27 03:27:29;;;;;;;;;;;15.20;99.90;;;;;;5105774;28;20274;-74
2023/06/27 03:29:54;;;;;;;;;;;15.30;99.90;;;;;;5108839;28;19920;-75
2023/06/27 03:32:20;;;;;;;;;;;15.30;99.90;;;;;;5112314;28;19935;-76
2023/06/27 03:34:47;;;;;;;;;;;15.30;99.90;;;;;;5105094;28;19931;-74
2023/06/27 03:37:12;;;;;;;;;;;15.30;99.90;;;;;;5107205;28;19920;-74
2023/06/27 03:39:38;;;;;;;;;;;15.30;99.90;;;;;;5113348;27;19919;-74
2023/06/27 03:42:04;;;;;;;;;;;15.30;99.90;;;;;;5100560;27;20434;-73
2023/06/27 03:44:31;;;;;;;;;;;15.30;99.90;;;;;;5108998;28;19923;-74
2023/06/27 03:46:57;;;;;;;;;;;15.30;99.90;;;;;;5107335;27;20030;-74
2023/06/27 03:49:22;;;;;;;;;;;15.30;99.90;;;;;;5083477;28;20029;-75
2023/06/27 03:51:48;;;;;;;;;;;15.30;99.90;;;;;;5118384;27;19951;-74
2023/06/27 03:54:13;;;;;;;;;;;15.30;99.90;;;;;;5105800;27;19960;-74
2023/06/27 03:56:39;;;;;;;;;;;15.30;99.90;;;;;;5105518;27;19939;-74
2023/06/27 03:59:04;;;;;;;;;;;15.20;99.90;;;;;;5097074;28;19925;-74
2023/06/27 04:01:30;;;;;;;;;;;15.30;99.90;;;;;;5101735;28;19924;-73
2023/06/27 04:03:56;;;;;;;;;;;15.30;99.90;;;;;;5122697;27;19920;-74
2023/06/27 04:06:21;;;;;;;;;;;15.40;99.90;;;;;;5111366;27;19935;-74
2023/06/27 04:08:47;;;;;;;;;;;15.40;99.90;;;;;;5102416;28;19967;-74
2023/06/27 04:11:12;;;;;;;;;;;15.40;99.90;;;;;;5104312;27;19924;-73
2023/06/27 04:13:38;;;;;;;;;;;15.40;99.90;;;;;;5113911;27;19920;-74
2023/06/27 04:16:04;;;;;;;;;;;15.40;99.90;;;;;;5094525;28;19920;-74
2023/06/27 04:18:30;;;;;;;;;;;15.40;99.90;;;;;;5107670;28;20393;-73
2023/06/27 04:20:55;;;;;;;;;;;15.50;99.90;;;;;;5101772;28;19920;-74
2023/06/27 04:23:21;;;;;;;;;;;15.50;99.90;;;;;;5107084;28;19921;-73
2023/06/27 04:25:59;;;;;;;;;;;15.60;99.90;;;;;;5106442;27;19966;-74
2023/06/27 04:28:24;;;;;;;;;;;15.60;99.90;;;;;;5103811;28;19942;-75
2023/06/27 04:30:50;;;;;;;;;;;15.60;99.90;;;;;;5105063;28;19923;-73
2023/06/27 04:33:15;;;;;;;;;;;15.70;99.90;;;;;;5105348;28;19943;-73
2023/06/27 04:35:41;;;;;;;;;;;15.70;99.90;;;;;;5109914;28;20379;-75
2023/06/27 04:38:08;;;;;;;;;;;15.80;99.90;;;;;;5091168;28;19920;-75
2023/06/27 04:40:33;;;;;;;;;;;15.80;99.90;;;;;;5100029;28;19927;-75
2023/06/27 04:42:59;;;;;;;;;;;15.80;99.90;;;;;;5105038;28;19920;-74
2023/06/27 04:45:25;;;;;;;;;;;15.90;99.90;;;;;;5109505;28;19924;-74
2023/06/27 04:47:51;;;;;;;;;;;15.90;99.90;;;;;;5117999;28;19947;-74
2023/06/27 04:50:19;;;;;;;;;;;16.00;99.90;;;;;;5108722;28;20358;-75
2023/06/27 04:52:44;;;;;;;;;;;16.00;99.90;;;;;;5103993;28;19935;-75
2023/06/27 04:55:10;;;;;;;;;;;16.10;99.90;;;;;;5114966;28;19928;-74
2023/06/27 04:57:36;;;;;;;;;;;16.20;99.90;;;;;;5097344;28;20010;-74
2023/06/27 05:00:04;;;;;;;;;;;16.20;99.90;;;;;;5109324;28;19970;-75
2023/06/27 05:02:30;;;;;;;;;;;16.30;99.90;;;;;;5106065;28;20388;-75
2023/06/27 05:04:55;;;;;;;;;;;16.30;99.90;;;;;;5120718;28;19907;-75
2023/06/27 05:07:23;;;;;;;;;;;16.40;99.90;;;;;;5100450;28;19927;-75
2023/06/27 05:09:49;;;;;;;;;;;16.40;99.90;;;;;;5118361;28;20572;-75
2023/06/27 05:12:14;;;;;;;;;;;16.50;99.90;;;;;;5083170;28;19920;-75
2023/06/27 05:14:40;;;;;;;;;;;16.60;99.90;;;;;;5115430;28;20296;-74
2023/06/27 05:17:06;;;;;;;;;;;16.70;99.90;;;;;;5108698;28;19920;-74
2023/06/27 05:19:31;;;;;;;;;;;16.80;99.90;;;;;;5107487;28;20344;-74
2023/06/27 05:21:57;;;;;;;;;;;16.90;99.90;;;;;;5119252;27;19942;-75
2023/06/27 05:24:23;;;;;;;;;;;17.00;99.90;;;;;;5121239;28;20440;-74
2023/06/27 05:26:51;;;;;;;;;;;17.10;99.90;;;;;;5086029;28;20293;-75
2023/06/27 05:29:16;;;;;;;;;;;17.10;99.90;;;;;;5116107;28;19963;-75
2023/06/27 05:31:43;;;;;;;;;;;17.20;99.90;;;;;;5115116;28;19920;-75
2023/06/27 05:34:08;;;;;;;;;;;17.20;99.90;;;;;;5096204;28;20225;-74
2023/06/27 05:36:34;;;;;;;;;;;17.30;99.90;;;;;;5109310;28;19987;-74
2023/06/27 05:38:59;;;;;;;;;;;17.40;99.90;;;;;;5095039;28;19925;-74
2023/06/27 05:41:25;;;;;;;;;;;17.50;99.90;;;;;;5118343;27;19920;-75
2023/06/27 05:43:51;;;;;;;;;;;17.50;99.90;;;;;;5119589;28;19920;-74
2023/06/27 05:46:16;;;;;;;;;;;17.60;99.90;;;;;;5123213;28;19926;-75
2023/06/27 05:48:42;;;;;;;;;;;17.70;99.90;;;;;;5111369;28;19919;-74
2023/06/27 05:51:08;;;;;;;;;;;17.80;99.90;;;;;;5132534;27;19927;-74
2023/06/27 05:53:34;;;;;;;;;;;17.80;99.90;;;;;;5113679;28;19923;-73
2023/06/27 05:55:59;;;;;;;;;;;17.90;99.90;;;;;;5106033;28;19911;-74
2023/06/27 05:58:25;;;;;;;;;;;18.10;99.90;;;;;;5113915;28;19915;-74
2023/06/27 06:00:51;;;;;;;;;;;18.20;99.90;;;;;;5122196;28;19919;-73
2023/06/27 06:03:16;;;;;;;;;;;18.30;99.90;;;;;;5121035;28;19920;-74
2023/06/27 06:05:42;;;;;;;;;;;18.40;99.90;;;;;;5102408;28;19967;-73
2023/06/27 06:08:07;;;;;;;;;;;18.50;99.90;;;;;;5120155;28;19934;-74
2023/06/27 06:10:33;;;;;;;;;;;18.60;99.90;;;;;;5107694;28;19927;-74
2023/06/27 06:12:58;;;;;;;;;;;18.80;99.90;;;;;;5113681;28;20324;-75
2023/06/27 06:15:24;;;;;;;;;;;19.10;99.90;;;;;;5118821;27;19994;-74
2023/06/27 06:17:50;;;;;;;;;;;19.30;99.90;;;;;;5128157;27;19924;-73
2023/06/27 06:20:15;;;;;;;;;;;19.50;99.90;;;;;;5110615;28;19920;-73
2023/06/27 06:22:41;;;;;;;;;;;19.60;99.90;;;;;;5109439;28;20357;-75
2023/06/27 06:25:10;;;;;;;;;;;19.50;99.90;;;;;;5093600;27;19924;-74
2023/06/27 06:27:36;;;;;;;;;;;19.60;99.90;;;;;;5105400;28;20010;-74
2023/06/27 06:30:01;;;;;;;;;;;19.60;99.40;;;;;;5117194;28;20022;-75
2023/06/27 06:32:27;;;;;;;;;;;19.60;99.50;;;;;;5113271;28;19920;-75
2023/06/27 06:34:52;;;;;;;;;;;19.60;99.90;;;;;;5100337;28;20001;-74
2023/06/27 06:37:18;;;;;;;;;;;19.60;99.90;;;;;;5113151;27;20026;-74
2023/06/27 06:39:43;;;;;;;;;;;19.70;99.90;;;;;;5113567;27;20013;-74
2023/06/27 06:42:12;;;;;;;;;;;19.80;99.60;;;;;;5101067;28;19927;-75
2023/06/27 06:44:38;;;;;;;;;;;20.00;99.40;;;;;;5127139;27;20502;-74
2023/06/27 06:47:03;;;;;;;;;;;20.00;99.10;;;;;;5116799;27;20391;-74
2023/06/27 06:49:33;;;;;;;;;;;20.10;98.30;;;;;;5106965;28;19920;-75
2023/06/27 06:51:58;;;;;;;;;;;20.10;98.40;;;;;;5098481;28;20373;-74
2023/06/27 06:54:24;;;;;;;;;;;20.10;97.70;;;;;;5111899;28;19920;-75
2023/06/27 06:56:49;;;;;;;;;;;20.10;97.10;;;;;;5103578;28;19930;-75
2023/06/27 06:59:15;;;;;;;;;;;20.20;97.30;;;;;;5081242;28;19919;-74
2023/06/27 07:01:41;;;;;;;;;;;20.30;96.40;;;;;;5099043;28;20326;-75
2023/06/27 07:04:06;;;;;;;;;;;20.30;96.90;;;;;;5098131;28;19923;-73
2023/06/27 07:06:32;;;;;;;;;;;20.40;96.70;;;;;;5097782;28;19920;-76
2023/06/27 07:08:57;;;;;;;;;;;20.50;96.90;;;;;;5097788;28;20336;-74
2023/06/27 07:11:23;;;;;;;;;;;20.60;96.50;;;;;;5104470;28;20310;-74
2023/06/27 07:13:49;;;;;;;;;;;20.80;96.60;;;;;;5119295;28;20434;-74
2023/06/27 07:16:14;;;;;;;;;;;20.90;96.00;;;;;;5118678;28;19919;-73
2023/06/27 07:18:40;;;;;;;;;;;20.90;95.70;;;;;;5117948;28;19962;-74
2023/06/27 07:21:06;;;;;;;;;;;20.90;95.30;;;;;;5118239;28;19919;-75
2023/06/27 07:23:32;;;;;;;;;;;20.90;95.40;;;;;;5118227;28;19927;-73
2023/06/27 07:25:57;;;;;;;;;;;20.90;94.80;;;;;;5118818;28;19977;-74
2023/06/27 07:28:23;;;;;;;;;;;20.80;94.60;;;;;;5105163;28;20389;-74
2023/06/27 07:30:48;;;;;;;;;;;20.70;94.60;;;;;;5099740;28;20412;-74
2023/06/27 07:33:14;;;;;;;;;;;20.60;94.80;;;;;;5098480;28;19920;-74
2023/06/27 07:35:39;;;;;;;;;;;20.50;95.20;;;;;;5102681;28;19977;-74
2023/06/27 07:38:05;;;;;;;;;;;20.40;95.10;;;;;;5100024;28;19927;-74
2023/06/27 07:40:30;;;;;;;;;;;20.40;94.80;;;;;;5086204;28;19942;-74
2023/06/27 07:42:56;;;;;;;;;;;20.40;94.00;;;;;;5116556;28;19920;-74
2023/06/27 07:45:23;;;;;;;;;;;20.30;94.60;;;;;;5097418;28;19926;-74
2023/06/27 07:47:52;;;;;;;;;;;20.20;94.80;;;;;;5097484;28;19920;-75
2023/06/27 07:50:17;;;;;;;;;;;20.20;94.30;;;;;;5116161;28;19926;-74
2023/06/27 07:52:44;;;;;;;;;;;20.20;94.10;;;;;;5116399;28;20368;-72
2023/06/27 07:55:10;;;;;;;;;;;20.30;94.10;;;;;;5117216;28;19942;-74
2023/06/27 07:57:35;;;;;;;;;;;20.30;93.90;;;;;;5100859;28;20433;-75
2023/06/27 08:00:01;;;;;;;;;;;20.40;94.20;;;;;;5097562;28;20010;-75
2023/06/27 08:02:26;;;;;;;;;;;20.50;94.00;;;;;;5098929;28;19942;-74
2023/06/27 08:04:52;;;;;;;;;;;20.70;94.00;;;;;;5113864;27;19920;-73
2023/06/27 08:07:18;;;;;;;;;;;20.90;93.30;;;;;;5098094;28;19978;-74
2023/06/27 08:09:43;;;;;;;;;;;21.10;93.60;;;;;;5097007;28;19935;-74
2023/06/27 08:12:09;;;;;;;;;;;21.10;92.90;;;;;;5079943;28;19988;-73
2023/06/27 08:14:35;;;;;;;;;;;21.20;90.70;;;;;;5079575;28;20007;-73
2023/06/27 08:17:03;;;;;;;;;;;21.30;91.80;;;;;;5113033;28;20474;-74
2023/06/27 08:19:29;;;;;;;;;;;21.30;91.40;;;;;;5100778;28;19924;-74
2023/06/27 08:21:55;;;;;;;;;;;21.30;90.90;;;;;;5115641;28;19919;-74
2023/06/27 08:24:23;;;;;;;;;;;21.30;89.30;;;;;;5099461;28;19919;-72
2023/06/27 08:26:49;;;;;;;;;;;21.30;90.70;;;;;;5115424;28;19920;-76
2023/06/27 08:29:16;;;;;;;;;;;21.50;90.70;;;;;;5097292;28;19920;-74
2023/06/27 08:31:42;;;;;;;;;;;21.60;90.70;;;;;;5096644;28;19920;-74
2023/06/27 08:34:07;;;;;;;;;;;21.70;91.20;;;;;;5098180;28;20007;-73
2023/06/27 08:36:33;;;;;;;;;;;21.60;90.40;;;;;;5094840;28;19966;-72
2023/06/27 08:39:02;;;;;;;;;;;21.40;90.50;;;;;;5097891;28;19927;-74
2023/06/27 08:41:28;;;;;;;;;;;21.40;90.60;;;;;;5115040;28;19923;-74
2023/06/27 08:43:54;;;;;;;;;;;21.50;91.00;;;;;;5116860;28;20471;-74
2023/06/27 08:46:21;;;;;;;;;;;21.60;91.00;;;;;;5098223;28;20313;-74
2023/06/27 08:48:47;;;;;;;;;;;21.60;91.00;;;;;;5102968;28;19959;-75
2023/06/27 08:51:14;;;;;;;;;;;21.50;90.70;;;;;;5102919;28;19920;-75
2023/06/27 08:53:42;;;;;;;;;;;21.50;90.30;;;;;;5079655;28;20374;-74
2023/06/27 08:56:11;;;;;;;;;;;21.40;90.60;;;;;;5116465;28;19927;-75
2023/06/27 08:58:40;;;;;;;;;;;21.50;90.60;;;;;;5102603;28;19999;-75
2023/06/27 09:01:06;;;;;;;;;;;21.60;91.20;;;;;;5101273;28;19951;-75
2023/06/27 09:03:33;;;;;;;;;;;21.70;91.30;;;;;;5082773;28;19963;-73
2023/06/27 09:05:59;;;;;;;;;;;21.80;90.70;;;;;;5088386;28;20301;-73
2023/06/27 09:08:24;;;;;;;;;;;21.70;91.00;;;;;;5108457;28;19908;-74
2023/06/27 09:10:50;;;;;;;;;;;21.50;91.00;;;;;;5104314;28;19946;-75
2023/06/27 09:13:18;;;;;;;;;;;21.50;91.00;;;;;;5122220;28;19919;-74
2023/06/27 09:15:43;;;;;;;;;;;21.60;91.30;;;;;;5084831;28;19920;-74
2023/06/27 09:18:09;;;;;;;;;;;21.70;90.70;;;;;;5110451;28;19920;-73
2023/06/27 09:20:34;;;;;;;;;;;21.90;90.40;;;;;;5100404;28;19927;-74
2023/06/27 09:23:05;;;;;;;;;;;22.10;89.70;;;;;;5100783;28;19924;-74
2023/06/27 09:25:30;;;;;;;;;;;22.30;87.90;;;;;;5099768;28;19924;-75
2023/06/27 09:27:56;;;;;;;;;;;22.30;88.00;;;;;;5100121;28;19942;-74
2023/06/27 09:30:23;;;;;;;;;;;22.30;86.80;;;;;;5081851;28;19927;-75
2023/06/27 09:32:53;;;;;;;;;;;22.20;88.10;;;;;;5065365;28;19927;-74
2023/06/27 09:35:19;;;;;;;;;;;22.30;87.90;;;;;;5115973;28;19920;-74
2023/06/27 09:37:44;;;;;;;;;;;22.40;89.50;;;;;;5081525;28;20061;-74
2023/06/27 09:40:25;;;;;;;;;;;22.50;86.00;;;;;;5104115;28;19967;-75
2023/06/27 09:42:58;;;;;;;;;;;22.60;87.20;;;;;;5120218;27;20423;-75
2023/06/27 09:45:24;;;;;;;;;;;22.70;87.00;;;;;;5120086;28;20312;-74
2023/06/27 09:47:50;;;;;;;;;;;22.60;86.10;;;;;;5108423;28;19920;-73
2023/06/27 09:50:16;;;;;;;;;;;22.50;87.20;;;;;;5100220;28;19920;-74
2023/06/27 09:52:48;;;;;;;;;;;22.50;85.80;;;;;;5098920;28;19924;-72
2023/06/27 09:55:20;;;;;;;;;;;22.50;85.60;;;;;;5100599;28;19920;-73
2023/06/27 09:57:46;;;;;;;;;;;22.70;86.00;;;;;;5119014;28;19923;-73
2023/06/27 10:00:13;;;;;;;;;;;22.70;85.30;;;;;;5136174;27;19946;-73
2023/06/27 10:02:39;;;;;;;;;;;22.80;85.30;;;;;;5115650;28;20282;-74
2023/06/27 10:05:05;;;;;;;;;;;22.80;84.50;;;;;;5102301;28;19924;-74
2023/06/27 10:07:31;;;;;;;;;;;22.70;86.00;;;;;;5098327;28;19981;-75
2023/06/27 10:09:56;;;;;;;;;;;22.70;86.10;;;;;;5113091;28;19911;-74
2023/06/27 10:12:23;;;;;;;;;;;22.60;86.20;;;;;;5100027;28;20289;-73
2023/06/27 10:14:51;;;;;;;;;;;22.50;85.70;;;;;;5099768;28;19985;-74
2023/06/27 10:17:18;;;;;;;;;;;22.50;86.80;;;;;;5065022;28;19920;-73
2023/06/27 10:19:44;;;;;;;;;;;22.60;86.50;;;;;;5109353;28;20053;-74
2023/06/27 10:22:11;;;;;;;;;;;22.70;86.80;;;;;;5087479;28;20309;-73
2023/06/27 10:24:39;;;;;;;;;;;22.70;86.50;;;;;;5090362;28;19920;-73
2023/06/27 10:27:07;;;;;;;;;;;22.80;87.40;;;;;;5113227;27;20292;-74
2023/06/27 10:29:32;;;;;;;;;;;22.80;86.90;;;;;;5109081;28;19973;-74
2023/06/27 10:31:58;;;;;;;;;;;22.60;87.00;;;;;;5100680;28;19908;-73
2023/06/27 10:34:29;;;;;;;;;;;22.60;86.90;;;;;;5113031;28;19920;-73
2023/06/27 10:36:55;;;;;;;;;;;22.70;87.60;;;;;;5117410;27;20009;-73
2023/06/27 10:39:41;;;;;;;;;;;22.70;85.90;;;;;;5121107;27;19970;-74
2023/06/27 10:42:25;;;;;;;;;;;22.80;85.70;;;;;;5117492;28;20007;-75
2023/06/27 10:44:54;;;;;;;;;;;23.00;85.10;;;;;;5101127;28;19924;-75
2023/06/27 10:47:22;;;;;;;;;;;23.00;85.20;;;;;;5128225;27;19924;-75
2023/06/27 10:49:50;;;;;;;;;;;23.00;85.70;;;;;;5091860;28;19927;-73
2023/06/27 10:52:22;;;;;;;;;;;22.70;86.00;;;;;;5106375;28;19919;-73
2023/06/27 10:55:07;;;;;;;;;;;22.50;86.20;;;;;;5111254;28;19919;-73
2023/06/27 10:57:41;;;;;;;;;;;22.40;87.30;;;;;;5105160;28;19920;-74
2023/06/27 11:00:13;;;;;;;;;;;22.30;87.90;;;;;;5097893;28;20349;-74
2023/06/27 11:02:48;;;;;;;;;;;22.50;88.00;;;;;;5125719;27;20258;-74
2023/06/27 11:05:16;;;;;;;;;;;22.60;88.50;;;;;;5111616;27;19920;-73
2023/06/27 11:07:52;;;;;;;;;;;22.70;85.40;;;;;;5119109;28;19988;-74
2023/06/27 11:10:22;;;;;;;;;;;22.70;85.40;;;;;;5102817;28;19920;-74
2023/06/27 11:12:48;;;;;;;;;;;22.60;86.40;;;;;;5090073;28;20388;-74
2023/06/27 11:15:14;;;;;;;;;;;22.60;86.80;;;;;;5089708;28;19920;-74
2023/06/27 11:17:40;;;;;;;;;;;22.70;86.00;;;;;;5081830;28;20331;-74
2023/06/27 11:20:08;;;;;;;;;;;22.70;86.20;;;;;;5095049;27;19919;-74
2023/06/27 11:22:33;;;;;;;;;;;22.70;86.70;;;;;;5138879;27;20330;-73
2023/06/27 11:24:59;;;;;;;;;;;22.80;85.40;;;;;;5109494;27;19920;-75
2023/06/27 11:27:31;;;;;;;;;;;22.80;85.30;;;;;;5098144;28;19920;-73
2023/06/27 11:29:57;;;;;;;;;;;22.90;84.30;;;;;;5087313;28;19934;-73
2023/06/27 11:32:24;;;;;;;;;;;22.90;85.40;;;;;;5096647;28;19935;-73
2023/06/27 11:34:49;;;;;;;;;;;22.90;83.90;;;;;;5093524;28;19920;-73
2023/06/27 11:37:15;;;;;;;;;;;22.80;83.70;;;;;;5085679;28;19920;-73
2023/06/27 11:39:50;;;;;;;;;;;22.90;83.10;;;;;;5106828;28;20284;-73
2023/06/27 11:42:17;;;;;;;;;;;22.70;83.40;;;;;;5112331;28;20364;-73
2023/06/27 11:44:42;;;;;;;;;;;22.70;84.30;;;;;;5113161;28;19924;-73
2023/06/27 11:47:08;;;;;;;;;;;22.70;85.00;;;;;;5110116;28;20057;-74
2023/06/27 11:49:35;;;;;;;;;;;22.80;84.80;;;;;;5104285;28;19928;-74
2023/06/27 11:52:00;;;;;;;;;;;22.80;84.30;;;;;;5091564;27;19928;-73
2023/06/27 11:54:26;;;;;;;;;;;22.80;83.80;;;;;;5127681;27;19920;-75
2023/06/27 11:56:58;;;;;;;;;;;22.70;83.40;;;;;;5123927;27;19941;-74
2023/06/27 11:59:30;;;;;;;;;;;22.80;83.60;;;;;;5085674;28;20434;-75
2023/06/27 12:01:59;;;;;;;;;;;22.70;83.80;;;;;;5096225;28;19983;-75
2023/06/27 12:04:24;;;;;;;;;;;22.60;85.10;;;;;;5090762;28;19919;-74
2023/06/27 12:06:50;;;;;;;;;;;22.50;86.10;;;;;;5117855;27;19928;-75
2023/06/27 12:09:25;;;;;;;;;;;22.50;86.50;;;;;;5123598;27;19945;-74
2023/06/27 12:11:52;;;;;;;;;;;22.40;86.50;;;;;;5093747;28;19924;-74
2023/06/27 12:14:22;;;;;;;;;;;22.50;85.90;;;;;;5127342;27;19920;-74
2023/06/27 12:16:47;;;;;;;;;;;22.50;84.10;;;;;;5089906;28;19926;-74
2023/06/27 12:19:13;;;;;;;;;;;22.50;86.70;;;;;;5103730;28;19919;-75
2023/06/27 12:21:38;;;;;;;;;;;22.50;82.90;;;;;;5109548;28;19935;-75
2023/06/27 12:24:04;;;;;;;;;;;22.50;83.10;;;;;;5100683;28;20374;-74
2023/06/27 12:26:30;;;;;;;;;;;22.40;84.00;;;;;;5080119;28;20022;-74
2023/06/27 12:28:55;;;;;;;;;;;22.30;85.60;;;;;;5113688;28;19920;-75
2023/06/27 12:31:21;;;;;;;;;;;22.20;85.40;;;;;;5112010;28;19972;-76
2023/06/27 12:33:46;;;;;;;;;;;22.20;86.90;;;;;;5114439;28;21450;-74
2023/06/27 12:36:14;;;;;;;;;;;22.30;86.90;;;;;;5104895;28;19920;-74
2023/06/27 12:38:42;;;;;;;;;;;22.40;85.90;;;;;;5100963;28;19927;-75
2023/06/27 12:41:08;;;;;;;;;;;22.40;85.90;;;;;;5113336;28;19935;-74
2023/06/27 12:43:33;;;;;;;;;;;22.50;84.90;;;;;;5088669;28;19919;-74
2023/06/27 12:46:02;;;;;;;;;;;22.40;84.90;;;;;;5119104;28;19910;-74
2023/06/27 12:48:28;;;;;;;;;;;22.50;85.10;;;;;;5095197;28;20391;-74
2023/06/27 12:50:54;;;;;;;;;;;22.60;84.80;;;;;;5107495;28;19920;-75
2023/06/27 12:53:19;;;;;;;;;;;22.70;83.60;;;;;;5096254;28;20364;-74
2023/06/27 12:55:45;;;;;;;;;;;22.50;84.70;;;;;;5105374;28;20400;-75
2023/06/27 12:58:11;;;;;;;;;;;22.50;84.30;;;;;;5103087;28;19965;-75
2023/06/27 13:00:39;;;;;;;;;;;22.60;84.70;;;;;;5116306;28;19920;-74
2023/06/27 13:03:06;;;;;;;;;;;22.50;83.70;;;;;;5108837;28;19963;-75
2023/06/27 13:05:32;;;;;;;;;;;22.60;83.30;;;;;;5105087;28;20384;-74
2023/06/27 13:07:58;;;;;;;;;;;22.60;83.40;;;;;;5107507;28;19920;-74
2023/06/27 13:10:25;;;;;;;;;;;22.60;83.90;;;;;;5108644;28;19973;-73
2023/06/27 13:12:51;;;;;;;;;;;22.70;85.20;;;;;;5085211;28;19931;-76
2023/06/27 13:15:18;;;;;;;;;;;22.90;82.70;;;;;;5121898;28;20297;-75
2023/06/27 13:17:46;;;;;;;;;;;23.00;81.70;;;;;;5089019;28;19975;-74
2023/06/27 13:20:12;;;;;;;;;;;23.00;81.80;;;;;;5133195;28;20004;-74
2023/06/27 13:22:39;;;;;;;;;;;22.90;82.60;;;;;;5111227;28;19924;-74
2023/06/27 13:25:05;;;;;;;;;;;23.00;83.80;;;;;;5110095;28;19920;-74
2023/06/27 13:27:31;;;;;;;;;;;23.10;83.30;;;;;;5091234;28;19930;-74
2023/06/27 13:29:57;;;;;;;;;;;23.20;83.80;;;;;;5113837;28;19926;-74
2023/06/27 13:32:23;;;;;;;;;;;23.20;82.60;;;;;;5114516;28;20265;-74
2023/06/27 13:34:48;;;;;;;;;;;23.30;80.90;;;;;;5089858;28;19920;-74
2023/06/27 13:37:14;;;;;;;;;;;23.10;78.90;;;;;;5110082;28;19928;-75
2023/06/27 13:39:40;;;;;;;;;;;22.90;80.70;;;;;;5104230;28;19928;-74
2023/06/27 13:42:05;;;;;;;;;;;22.90;80.30;;;;;;5105194;28;19924;-75
2023/06/27 13:44:31;;;;;;;;;;;23.20;80.20;;;;;;5110608;27;19963;-75
2023/06/27 13:46:56;;;;;;;;;;;23.40;79.80;;;;;;5097009;28;19919;-74
2023/06/27 13:49:22;;;;;;;;;;;23.70;79.30;;;;;;5115043;27;19990;-73
2023/06/27 13:51:47;;;;;;;;;;;23.90;78.60;;;;;;5099576;28;19975;-75
2023/06/27 13:54:13;;;;;;;;;;;24.10;79.60;;;;;;5110624;28;20006;-74
2023/06/27 13:56:38;;;;;;;;;;;24.20;78.50;;;;;;5086282;28;19919;-75
2023/06/27 13:59:04;;;;;;;;;;;24.30;79.20;;;;;;5113456;27;19923;-74
2023/06/27 14:01:29;;;;;;;;;;;24.40;78.90;;;;;;5110352;27;19964;-75
2023/06/27 14:03:58;;;;;;;;;;;24.20;78.20;;;;;;5102889;27;19919;-74
2023/06/27 14:06:24;;;;;;;;;;;24.10;78.10;;;;;;5105099;27;19927;-75
2023/06/27 14:08:52;;;;;;;;;;;24.00;79.00;;;;;;5113151;27;19919;-75
2023/06/27 14:11:21;;;;;;;;;;;24.10;76.90;;;;;;5097370;28;19959;-74
2023/06/27 14:13:50;;;;;;;;;;;23.80;77.40;;;;;;5089592;28;19926;-74